sensor_id;sensor_type;location;lat;lon;timestamp;P1;durP1;ratioP1;P2;durP2;ratioP2
64293;SDS011;50636;45.596;5.258;2023-06-22T00:00:56;17.90;;;7.72;;
64293;SDS011;50636;45.596;5.258;2023-06-22T00:03:23;17.48;;;6.78;;
64293;SDS011;50636;45.596;5.258;2023-06-22T00:05:49;25.40;;;7.85;;
64293;SDS011;50636;45.596;5.258;2023-06-22T00:08:15;18.30;;;6.53;;
64293;SDS011;50636;45.596;5.258;2023-06-22T00:10:42;17.58;;;5.93;;
64293;SDS011;50636;45.596;5.258;2023-06-22T00:13:08;19.98;;;5.68;;
64293;SDS011;50636;45.596;5.258;2023-06-22T00:15:34;23.20;;;6.53;;
64293;SDS011;50636;45.596;5.258;2023-06-22T00:18:01;12.98;;;5.50;;
64293;SDS011;50636;45.596;5.258;2023-06-22T00:20:27;15.90;;;5.63;;
64293;SDS011;50636;45.596;5.258;2023-06-22T00:22:57;18.75;;;6.22;;
64293;SDS011;50636;45.596;5.258;2023-06-22T00:25:23;22.00;;;6.03;;
64293;SDS011;50636;45.596;5.258;2023-06-22T00:27:49;20.30;;;6.43;;
64293;SDS011;50636;45.596;5.258;2023-06-22T00:30:15;24.35;;;7.53;;
64293;SDS011;50636;45.596;5.258;2023-06-22T00:32:42;13.32;;;5.55;;
64293;SDS011;50636;45.596;5.258;2023-06-22T00:35:09;16.65;;;6.13;;
64293;SDS011;50636;45.596;5.258;2023-06-22T00:37:38;18.73;;;5.85;;
64293;SDS011;50636;45.596;5.258;2023-06-22T00:40:07;12.23;;;5.47;;
64293;SDS011;50636;45.596;5.258;2023-06-22T00:42:36;21.60;;;6.60;;
64293;SDS011;50636;45.596;5.258;2023-06-22T00:45:02;14.18;;;5.53;;
64293;SDS011;50636;45.596;5.258;2023-06-22T00:47:28;21.20;;;5.82;;
64293;SDS011;50636;45.596;5.258;2023-06-22T00:49:54;20.77;;;5.70;;
64293;SDS011;50636;45.596;5.258;2023-06-22T00:52:20;17.52;;;6.63;;
64293;SDS011;50636;45.596;5.258;2023-06-22T00:54:51;17.73;;;6.28;;
64293;SDS011;50636;45.596;5.258;2023-06-22T00:57:17;13.43;;;5.60;;
64293;SDS011;50636;45.596;5.258;2023-06-22T00:59:45;16.83;;;6.80;;
64293;SDS011;50636;45.596;5.258;2023-06-22T01:02:13;18.80;;;5.95;;
64293;SDS011;50636;45.596;5.258;2023-06-22T01:04:39;13.75;;;5.82;;
64293;SDS011;50636;45.596;5.258;2023-06-22T01:13:27;15.35;;;6.05;;
64293;SDS011;50636;45.596;5.258;2023-06-22T01:16:16;17.15;;;7.38;;
64293;SDS011;50636;45.596;5.258;2023-06-22T01:18:45;13.05;;;5.63;;
64293;SDS011;50636;45.596;5.258;2023-06-22T01:21:16;16.65;;;6.28;;
64293;SDS011;50636;45.596;5.258;2023-06-22T01:23:50;18.80;;;8.07;;
64293;SDS011;50636;45.596;5.258;2023-06-22T01:29:17;19.65;;;6.43;;
64293;SDS011;50636;45.596;5.258;2023-06-22T01:31:43;16.75;;;5.97;;
64293;SDS011;50636;45.596;5.258;2023-06-22T01:34:10;17.40;;;6.55;;
64293;SDS011;50636;45.596;5.258;2023-06-22T01:36:38;19.00;;;6.60;;
64293;SDS011;50636;45.596;5.258;2023-06-22T01:39:05;13.00;;;6.47;;
64293;SDS011;50636;45.596;5.258;2023-06-22T01:41:34;24.98;;;6.97;;
64293;SDS011;50636;45.596;5.258;2023-06-22T01:44:02;14.48;;;7.40;;
64293;SDS011;50636;45.596;5.258;2023-06-22T01:46:33;19.40;;;6.80;;
64293;SDS011;50636;45.596;5.258;2023-06-22T01:49:00;16.00;;;6.70;;
64293;SDS011;50636;45.596;5.258;2023-06-22T01:51:28;17.67;;;6.45;;
64293;SDS011;50636;45.596;5.258;2023-06-22T01:53:53;17.30;;;7.57;;
64293;SDS011;50636;45.596;5.258;2023-06-22T01:56:19;17.48;;;6.15;;
64293;SDS011;50636;45.596;5.258;2023-06-22T01:58:57;23.40;;;6.30;;
64293;SDS011;50636;45.596;5.258;2023-06-22T02:01:35;14.95;;;6.20;;
64293;SDS011;50636;45.596;5.258;2023-06-22T02:06:37;19.23;;;6.03;;
64293;SDS011;50636;45.596;5.258;2023-06-22T02:09:12;19.40;;;6.50;;
64293;SDS011;50636;45.596;5.258;2023-06-22T02:11:41;17.83;;;6.35;;
64293;SDS011;50636;45.596;5.258;2023-06-22T02:14:10;20.08;;;5.60;;
64293;SDS011;50636;45.596;5.258;2023-06-22T02:16:37;14.40;;;6.25;;
64293;SDS011;50636;45.596;5.258;2023-06-22T02:19:03;24.30;;;6.43;;
64293;SDS011;50636;45.596;5.258;2023-06-22T02:21:29;17.52;;;5.72;;
64293;SDS011;50636;45.596;5.258;2023-06-22T02:23:56;12.85;;;6.10;;
64293;SDS011;50636;45.596;5.258;2023-06-22T02:26:22;22.42;;;6.78;;
64293;SDS011;50636;45.596;5.258;2023-06-22T02:28:50;19.40;;;6.75;;
64293;SDS011;50636;45.596;5.258;2023-06-22T02:31:16;27.08;;;6.47;;
64293;SDS011;50636;45.596;5.258;2023-06-22T02:33:41;19.25;;;7.18;;
64293;SDS011;50636;45.596;5.258;2023-06-22T02:36:08;14.85;;;5.93;;
64293;SDS011;50636;45.596;5.258;2023-06-22T02:38:34;21.13;;;6.30;;
64293;SDS011;50636;45.596;5.258;2023-06-22T02:41:01;21.20;;;5.78;;
64293;SDS011;50636;45.596;5.258;2023-06-22T02:43:27;22.85;;;6.35;;
64293;SDS011;50636;45.596;5.258;2023-06-22T02:45:53;23.23;;;5.65;;
64293;SDS011;50636;45.596;5.258;2023-06-22T02:48:18;18.17;;;6.25;;
64293;SDS011;50636;45.596;5.258;2023-06-22T02:50:44;23.63;;;6.85;;
64293;SDS011;50636;45.596;5.258;2023-06-22T02:53:10;23.42;;;6.70;;
64293;SDS011;50636;45.596;5.258;2023-06-22T02:55:36;22.38;;;6.55;;
64293;SDS011;50636;45.596;5.258;2023-06-22T02:58:02;22.23;;;6.95;;
64293;SDS011;50636;45.596;5.258;2023-06-22T03:00:30;15.48;;;6.28;;
64293;SDS011;50636;45.596;5.258;2023-06-22T03:02:56;19.83;;;6.15;;
64293;SDS011;50636;45.596;5.258;2023-06-22T03:05:23;13.73;;;6.15;;
64293;SDS011;50636;45.596;5.258;2023-06-22T03:07:49;23.40;;;6.68;;
64293;SDS011;50636;45.596;5.258;2023-06-22T03:10:14;21.40;;;6.35;;
64293;SDS011;50636;45.596;5.258;2023-06-22T03:12:41;26.00;;;6.40;;
64293;SDS011;50636;45.596;5.258;2023-06-22T03:15:09;18.35;;;6.85;;
64293;SDS011;50636;45.596;5.258;2023-06-22T03:17:36;18.38;;;6.53;;
64293;SDS011;50636;45.596;5.258;2023-06-22T03:20:04;21.60;;;6.90;;
64293;SDS011;50636;45.596;5.258;2023-06-22T03:22:35;27.52;;;6.65;;
64293;SDS011;50636;45.596;5.258;2023-06-22T03:25:04;17.08;;;6.53;;
64293;SDS011;50636;45.596;5.258;2023-06-22T03:27:38;14.95;;;6.93;;
64293;SDS011;50636;45.596;5.258;2023-06-22T03:30:05;16.38;;;9.13;;
64293;SDS011;50636;45.596;5.258;2023-06-22T03:32:34;23.13;;;11.27;;
64293;SDS011;50636;45.596;5.258;2023-06-22T03:34:59;35.33;;;21.23;;
64293;SDS011;50636;45.596;5.258;2023-06-22T03:37:25;46.20;;;41.13;;
64293;SDS011;50636;45.596;5.258;2023-06-22T03:39:52;41.78;;;32.22;;
64293;SDS011;50636;45.596;5.258;2023-06-22T03:42:18;44.47;;;39.75;;
64293;SDS011;50636;45.596;5.258;2023-06-22T03:44:43;24.02;;;7.10;;
64293;SDS011;50636;45.596;5.258;2023-06-22T03:47:09;18.33;;;7.07;;
64293;SDS011;50636;45.596;5.258;2023-06-22T03:49:35;22.73;;;7.18;;
64293;SDS011;50636;45.596;5.258;2023-06-22T03:52:01;22.92;;;6.82;;
64293;SDS011;50636;45.596;5.258;2023-06-22T03:54:28;19.75;;;7.78;;
64293;SDS011;50636;45.596;5.258;2023-06-22T03:56:54;25.27;;;8.23;;
64293;SDS011;50636;45.596;5.258;2023-06-22T03:59:20;19.88;;;6.97;;
64293;SDS011;50636;45.596;5.258;2023-06-22T04:01:45;25.15;;;7.63;;
64293;SDS011;50636;45.596;5.258;2023-06-22T04:04:11;15.38;;;7.53;;
64293;SDS011;50636;45.596;5.258;2023-06-22T04:06:37;26.30;;;7.50;;
64293;SDS011;50636;45.596;5.258;2023-06-22T04:09:03;19.88;;;7.72;;
64293;SDS011;50636;45.596;5.258;2023-06-22T04:11:30;21.23;;;7.13;;
64293;SDS011;50636;45.596;5.258;2023-06-22T04:13:56;19.20;;;7.25;;
64293;SDS011;50636;45.596;5.258;2023-06-22T04:16:22;26.05;;;7.95;;
64293;SDS011;50636;45.596;5.258;2023-06-22T04:18:47;23.52;;;7.38;;
64293;SDS011;50636;45.596;5.258;2023-06-22T04:21:13;24.80;;;9.50;;
64293;SDS011;50636;45.596;5.258;2023-06-22T04:23:39;23.70;;;6.82;;
64293;SDS011;50636;45.596;5.258;2023-06-22T04:26:05;24.52;;;6.93;;
64293;SDS011;50636;45.596;5.258;2023-06-22T04:28:30;26.17;;;7.47;;
64293;SDS011;50636;45.596;5.258;2023-06-22T04:31:00;30.13;;;7.78;;
64293;SDS011;50636;45.596;5.258;2023-06-22T04:33:27;20.92;;;7.28;;
64293;SDS011;50636;45.596;5.258;2023-06-22T04:35:54;19.25;;;6.70;;
64293;SDS011;50636;45.596;5.258;2023-06-22T04:38:22;22.40;;;7.65;;
64293;SDS011;50636;45.596;5.258;2023-06-22T04:40:49;22.95;;;6.90;;
64293;SDS011;50636;45.596;5.258;2023-06-22T04:43:15;22.52;;;7.25;;
64293;SDS011;50636;45.596;5.258;2023-06-22T04:45:40;23.52;;;8.48;;
64293;SDS011;50636;45.596;5.258;2023-06-22T04:48:06;20.85;;;7.55;;
64293;SDS011;50636;45.596;5.258;2023-06-22T04:50:33;34.92;;;8.60;;
64293;SDS011;50636;45.596;5.258;2023-06-22T04:52:59;25.90;;;7.53;;
64293;SDS011;50636;45.596;5.258;2023-06-22T04:55:24;25.42;;;7.15;;
64293;SDS011;50636;45.596;5.258;2023-06-22T04:57:50;20.85;;;7.78;;
64293;SDS011;50636;45.596;5.258;2023-06-22T05:00:17;19.73;;;7.00;;
64293;SDS011;50636;45.596;5.258;2023-06-22T05:02:45;34.05;;;8.98;;
64293;SDS011;50636;45.596;5.258;2023-06-22T05:05:12;28.25;;;7.43;;
64293;SDS011;50636;45.596;5.258;2023-06-22T05:07:44;21.20;;;7.45;;
64293;SDS011;50636;45.596;5.258;2023-06-22T05:10:13;21.58;;;7.57;;
64293;SDS011;50636;45.596;5.258;2023-06-22T05:12:39;22.63;;;6.55;;
64293;SDS011;50636;45.596;5.258;2023-06-22T05:15:09;26.15;;;7.25;;
64293;SDS011;50636;45.596;5.258;2023-06-22T05:17:37;21.50;;;7.20;;
64293;SDS011;50636;45.596;5.258;2023-06-22T05:20:11;16.70;;;7.25;;
64293;SDS011;50636;45.596;5.258;2023-06-22T05:22:38;19.63;;;7.28;;
64293;SDS011;50636;45.596;5.258;2023-06-22T05:25:08;25.85;;;8.35;;
64293;SDS011;50636;45.596;5.258;2023-06-22T05:27:35;20.40;;;7.13;;
64293;SDS011;50636;45.596;5.258;2023-06-22T05:30:08;15.93;;;6.82;;
64293;SDS011;50636;45.596;5.258;2023-06-22T05:32:35;16.77;;;6.65;;
64293;SDS011;50636;45.596;5.258;2023-06-22T05:35:02;17.05;;;7.15;;
64293;SDS011;50636;45.596;5.258;2023-06-22T05:37:28;27.42;;;7.43;;
64293;SDS011;50636;45.596;5.258;2023-06-22T05:39:55;22.83;;;6.60;;
64293;SDS011;50636;45.596;5.258;2023-06-22T05:42:21;17.40;;;6.88;;
64293;SDS011;50636;45.596;5.258;2023-06-22T05:44:47;31.65;;;7.82;;
64293;SDS011;50636;45.596;5.258;2023-06-22T05:47:12;30.55;;;7.47;;
64293;SDS011;50636;45.596;5.258;2023-06-22T05:49:38;19.75;;;7.00;;
64293;SDS011;50636;45.596;5.258;2023-06-22T05:52:04;23.60;;;8.30;;
64293;SDS011;50636;45.596;5.258;2023-06-22T05:54:30;16.23;;;7.82;;
64293;SDS011;50636;45.596;5.258;2023-06-22T05:56:56;15.93;;;7.63;;
64293;SDS011;50636;45.596;5.258;2023-06-22T05:59:22;30.05;;;8.75;;
64293;SDS011;50636;45.596;5.258;2023-06-22T06:01:47;23.40;;;8.13;;
64293;SDS011;50636;45.596;5.258;2023-06-22T06:04:19;27.25;;;8.20;;
64293;SDS011;50636;45.596;5.258;2023-06-22T06:06:44;21.27;;;7.45;;
64293;SDS011;50636;45.596;5.258;2023-06-22T06:09:12;22.08;;;8.20;;
64293;SDS011;50636;45.596;5.258;2023-06-22T06:11:39;37.63;;;8.68;;
64293;SDS011;50636;45.596;5.258;2023-06-22T06:14:05;70.03;;;10.68;;
64293;SDS011;50636;45.596;5.258;2023-06-22T06:16:30;69.05;;;12.95;;
64293;SDS011;50636;45.596;5.258;2023-06-22T06:18:56;40.85;;;8.75;;
64293;SDS011;50636;45.596;5.258;2023-06-22T06:21:23;34.83;;;7.97;;
64293;SDS011;50636;45.596;5.258;2023-06-22T06:23:49;33.88;;;9.50;;
64293;SDS011;50636;45.596;5.258;2023-06-22T06:26:15;29.25;;;8.73;;
64293;SDS011;50636;45.596;5.258;2023-06-22T06:28:42;36.85;;;9.48;;
64293;SDS011;50636;45.596;5.258;2023-06-22T06:31:08;23.42;;;6.78;;
64293;SDS011;50636;45.596;5.258;2023-06-22T06:33:34;128.32;;;13.82;;
64293;SDS011;50636;45.596;5.258;2023-06-22T06:36:00;54.55;;;10.88;;
64293;SDS011;50636;45.596;5.258;2023-06-22T06:38:29;97.20;;;14.88;;
64293;SDS011;50636;45.596;5.258;2023-06-22T06:40:55;56.97;;;11.32;;
64293;SDS011;50636;45.596;5.258;2023-06-22T06:43:21;39.80;;;10.10;;
64293;SDS011;50636;45.596;5.258;2023-06-22T06:45:48;32.05;;;10.35;;
64293;SDS011;50636;45.596;5.258;2023-06-22T06:48:13;25.38;;;9.15;;
64293;SDS011;50636;45.596;5.258;2023-06-22T06:50:39;38.97;;;10.57;;
64293;SDS011;50636;45.596;5.258;2023-06-22T06:53:05;46.70;;;10.77;;
64293;SDS011;50636;45.596;5.258;2023-06-22T06:55:31;36.38;;;10.32;;
64293;SDS011;50636;45.596;5.258;2023-06-22T06:57:58;48.47;;;9.32;;
64293;SDS011;50636;45.596;5.258;2023-06-22T07:00:25;30.30;;;8.73;;
64293;SDS011;50636;45.596;5.258;2023-06-22T07:02:51;41.28;;;10.90;;
64293;SDS011;50636;45.596;5.258;2023-06-22T07:05:16;27.55;;;13.13;;
64293;SDS011;50636;45.596;5.258;2023-06-22T07:07:42;27.52;;;10.40;;
64293;SDS011;50636;45.596;5.258;2023-06-22T07:10:08;34.00;;;13.02;;
64293;SDS011;50636;45.596;5.258;2023-06-22T07:12:34;24.75;;;8.85;;
64293;SDS011;50636;45.596;5.258;2023-06-22T07:15:03;24.85;;;10.57;;
64293;SDS011;50636;45.596;5.258;2023-06-22T07:17:30;109.07;;;16.58;;
64293;SDS011;50636;45.596;5.258;2023-06-22T07:19:56;36.70;;;9.82;;
64293;SDS011;50636;45.596;5.258;2023-06-22T07:22:22;22.92;;;6.70;;
64293;SDS011;50636;45.596;5.258;2023-06-22T07:24:48;24.67;;;8.10;;
64293;SDS011;50636;45.596;5.258;2023-06-22T07:27:14;31.30;;;8.02;;
64293;SDS011;50636;45.596;5.258;2023-06-22T07:29:44;36.35;;;8.40;;
64293;SDS011;50636;45.596;5.258;2023-06-22T07:32:09;33.97;;;9.05;;
64293;SDS011;50636;45.596;5.258;2023-06-22T07:34:35;29.98;;;8.50;;
64293;SDS011;50636;45.596;5.258;2023-06-22T07:37:01;127.60;;;15.25;;
64293;SDS011;50636;45.596;5.258;2023-06-22T07:39:26;45.97;;;10.57;;
64293;SDS011;50636;45.596;5.258;2023-06-22T07:41:53;57.63;;;10.55;;
64293;SDS011;50636;45.596;5.258;2023-06-22T07:44:19;48.75;;;8.38;;
64293;SDS011;50636;45.596;5.258;2023-06-22T07:46:45;45.47;;;10.23;;
64293;SDS011;50636;45.596;5.258;2023-06-22T07:49:10;61.83;;;11.48;;
64293;SDS011;50636;45.596;5.258;2023-06-22T07:51:36;41.08;;;8.55;;
64293;SDS011;50636;45.596;5.258;2023-06-22T07:54:02;27.25;;;7.47;;
64293;SDS011;50636;45.596;5.258;2023-06-22T07:56:28;30.35;;;6.38;;
64293;SDS011;50636;45.596;5.258;2023-06-22T07:58:53;22.88;;;6.60;;
64293;SDS011;50636;45.596;5.258;2023-06-22T08:01:20;14.63;;;5.82;;
64293;SDS011;50636;45.596;5.258;2023-06-22T08:03:48;16.63;;;6.18;;
64293;SDS011;50636;45.596;5.258;2023-06-22T08:06:14;16.33;;;6.15;;
64293;SDS011;50636;45.596;5.258;2023-06-22T08:08:40;20.83;;;6.70;;
64293;SDS011;50636;45.596;5.258;2023-06-22T08:11:05;21.33;;;6.93;;
64293;SDS011;50636;45.596;5.258;2023-06-22T08:13:31;24.10;;;6.90;;
64293;SDS011;50636;45.596;5.258;2023-06-22T08:15:57;19.75;;;6.90;;
64293;SDS011;50636;45.596;5.258;2023-06-22T08:18:23;20.73;;;6.47;;
64293;SDS011;50636;45.596;5.258;2023-06-22T08:20:48;21.23;;;6.10;;
64293;SDS011;50636;45.596;5.258;2023-06-22T08:23:15;51.97;;;9.15;;
64293;SDS011;50636;45.596;5.258;2023-06-22T08:25:41;21.40;;;5.68;;
64293;SDS011;50636;45.596;5.258;2023-06-22T08:28:06;19.38;;;5.07;;
64293;SDS011;50636;45.596;5.258;2023-06-22T08:30:32;27.88;;;6.20;;
64293;SDS011;50636;45.596;5.258;2023-06-22T08:32:58;38.53;;;7.43;;
64293;SDS011;50636;45.596;5.258;2023-06-22T08:35:24;31.60;;;7.32;;
64293;SDS011;50636;45.596;5.258;2023-06-22T08:37:50;33.97;;;8.27;;
64293;SDS011;50636;45.596;5.258;2023-06-22T08:40:17;20.70;;;5.55;;
64293;SDS011;50636;45.596;5.258;2023-06-22T08:42:45;16.27;;;6.00;;
64293;SDS011;50636;45.596;5.258;2023-06-22T08:45:12;22.20;;;6.13;;
64293;SDS011;50636;45.596;5.258;2023-06-22T08:47:39;19.63;;;6.03;;
64293;SDS011;50636;45.596;5.258;2023-06-22T08:50:06;41.10;;;7.53;;
64293;SDS011;50636;45.596;5.258;2023-06-22T08:52:33;46.45;;;8.07;;
64293;SDS011;50636;45.596;5.258;2023-06-22T08:54:59;24.80;;;6.35;;
64293;SDS011;50636;45.596;5.258;2023-06-22T08:57:25;37.63;;;8.23;;
64293;SDS011;50636;45.596;5.258;2023-06-22T08:59:51;20.65;;;6.00;;
64293;SDS011;50636;45.596;5.258;2023-06-22T09:02:18;45.97;;;8.73;;
64293;SDS011;50636;45.596;5.258;2023-06-22T09:04:45;40.35;;;7.03;;
64293;SDS011;50636;45.596;5.258;2023-06-22T09:07:11;23.55;;;6.10;;
64293;SDS011;50636;45.596;5.258;2023-06-22T09:09:37;27.58;;;6.07;;
64293;SDS011;50636;45.596;5.258;2023-06-22T09:12:03;22.80;;;5.90;;
64293;SDS011;50636;45.596;5.258;2023-06-22T09:14:29;29.45;;;7.00;;
64293;SDS011;50636;45.596;5.258;2023-06-22T09:16:55;29.85;;;7.10;;
64293;SDS011;50636;45.596;5.258;2023-06-22T09:19:20;32.65;;;7.60;;
64293;SDS011;50636;45.596;5.258;2023-06-22T09:21:46;80.55;;;9.50;;
64293;SDS011;50636;45.596;5.258;2023-06-22T09:24:12;55.42;;;7.45;;
64293;SDS011;50636;45.596;5.258;2023-06-22T09:26:37;46.15;;;8.05;;
64293;SDS011;50636;45.596;5.258;2023-06-22T09:29:06;23.52;;;6.05;;
64293;SDS011;50636;45.596;5.258;2023-06-22T09:31:32;24.33;;;6.32;;
64293;SDS011;50636;45.596;5.258;2023-06-22T09:33:57;41.60;;;6.65;;
64293;SDS011;50636;45.596;5.258;2023-06-22T09:36:23;42.38;;;6.55;;
64293;SDS011;50636;45.596;5.258;2023-06-22T09:38:49;40.50;;;7.82;;
64293;SDS011;50636;45.596;5.258;2023-06-22T09:41:20;24.77;;;6.65;;
64293;SDS011;50636;45.596;5.258;2023-06-22T09:43:45;23.08;;;6.50;;
64293;SDS011;50636;45.596;5.258;2023-06-22T09:46:14;26.48;;;7.53;;
64293;SDS011;50636;45.596;5.258;2023-06-22T09:48:42;23.80;;;6.72;;
64293;SDS011;50636;45.596;5.258;2023-06-22T09:51:08;27.50;;;6.18;;
64293;SDS011;50636;45.596;5.258;2023-06-22T09:53:34;22.70;;;6.00;;
64293;SDS011;50636;45.596;5.258;2023-06-22T09:56:00;23.45;;;6.18;;
64293;SDS011;50636;45.596;5.258;2023-06-22T09:58:27;43.63;;;7.82;;
64293;SDS011;50636;45.596;5.258;2023-06-22T10:00:53;23.73;;;6.78;;
64293;SDS011;50636;45.596;5.258;2023-06-22T10:03:19;30.52;;;7.15;;
64293;SDS011;50636;45.596;5.258;2023-06-22T10:05:45;24.20;;;5.60;;
64293;SDS011;50636;45.596;5.258;2023-06-22T10:08:11;19.98;;;6.57;;
64293;SDS011;50636;45.596;5.258;2023-06-22T10:10:37;20.83;;;5.30;;
64293;SDS011;50636;45.596;5.258;2023-06-22T10:13:07;24.52;;;6.55;;
64293;SDS011;50636;45.596;5.258;2023-06-22T10:15:35;37.60;;;6.95;;
64293;SDS011;50636;45.596;5.258;2023-06-22T10:18:01;24.95;;;6.18;;
64293;SDS011;50636;45.596;5.258;2023-06-22T10:20:27;34.92;;;6.57;;
64293;SDS011;50636;45.596;5.258;2023-06-22T10:22:53;24.45;;;5.95;;
64293;SDS011;50636;45.596;5.258;2023-06-22T10:25:19;24.17;;;7.60;;
64293;SDS011;50636;45.596;5.258;2023-06-22T10:27:44;17.70;;;5.25;;
64293;SDS011;50636;45.596;5.258;2023-06-22T10:30:10;18.45;;;5.90;;
64293;SDS011;50636;45.596;5.258;2023-06-22T10:32:40;32.47;;;6.70;;
64293;SDS011;50636;45.596;5.258;2023-06-22T10:35:08;26.95;;;6.45;;
64293;SDS011;50636;45.596;5.258;2023-06-22T10:37:35;36.03;;;6.97;;
64293;SDS011;50636;45.596;5.258;2023-06-22T10:40:01;20.40;;;5.60;;
64293;SDS011;50636;45.596;5.258;2023-06-22T10:42:29;21.27;;;5.97;;
64293;SDS011;50636;45.596;5.258;2023-06-22T10:44:54;27.33;;;5.68;;
64293;SDS011;50636;45.596;5.258;2023-06-22T10:47:20;25.35;;;5.95;;
64293;SDS011;50636;45.596;5.258;2023-06-22T10:49:46;19.80;;;6.15;;
64293;SDS011;50636;45.596;5.258;2023-06-22T10:52:11;20.45;;;6.30;;
64293;SDS011;50636;45.596;5.258;2023-06-22T10:54:37;19.55;;;5.32;;
64293;SDS011;50636;45.596;5.258;2023-06-22T10:57:03;21.25;;;5.93;;
64293;SDS011;50636;45.596;5.258;2023-06-22T10:59:29;24.77;;;5.97;;
64293;SDS011;50636;45.596;5.258;2023-06-22T11:01:55;14.70;;;5.07;;
64293;SDS011;50636;45.596;5.258;2023-06-22T11:04:21;18.92;;;5.18;;
64293;SDS011;50636;45.596;5.258;2023-06-22T11:06:47;27.80;;;6.40;;
64293;SDS011;50636;45.596;5.258;2023-06-22T11:09:14;29.55;;;6.63;;
64293;SDS011;50636;45.596;5.258;2023-06-22T11:11:44;22.13;;;6.30;;
64293;SDS011;50636;45.596;5.258;2023-06-22T11:14:10;24.08;;;6.32;;
64293;SDS011;50636;45.596;5.258;2023-06-22T11:16:36;22.25;;;6.97;;
64293;SDS011;50636;45.596;5.258;2023-06-22T11:19:01;28.50;;;5.82;;
64293;SDS011;50636;45.596;5.258;2023-06-22T11:21:30;19.63;;;6.63;;
64293;SDS011;50636;45.596;5.258;2023-06-22T11:23:56;18.60;;;5.88;;
64293;SDS011;50636;45.596;5.258;2023-06-22T11:26:22;23.23;;;5.88;;
64293;SDS011;50636;45.596;5.258;2023-06-22T11:28:48;27.02;;;7.32;;
64293;SDS011;50636;45.596;5.258;2023-06-22T11:31:14;27.08;;;6.82;;
64293;SDS011;50636;45.596;5.258;2023-06-22T11:33:40;26.77;;;6.95;;
64293;SDS011;50636;45.596;5.258;2023-06-22T11:36:05;26.17;;;7.32;;
64293;SDS011;50636;45.596;5.258;2023-06-22T11:38:31;32.20;;;6.50;;
64293;SDS011;50636;45.596;5.258;2023-06-22T11:40:58;25.08;;;7.03;;
64293;SDS011;50636;45.596;5.258;2023-06-22T11:43:25;20.83;;;6.95;;
64293;SDS011;50636;45.596;5.258;2023-06-22T11:45:50;25.95;;;7.63;;
64293;SDS011;50636;45.596;5.258;2023-06-22T11:48:16;23.00;;;7.60;;
64293;SDS011;50636;45.596;5.258;2023-06-22T11:50:42;24.95;;;5.72;;
64293;SDS011;50636;45.596;5.258;2023-06-22T11:53:08;43.17;;;7.13;;
64293;SDS011;50636;45.596;5.258;2023-06-22T11:55:33;22.63;;;6.07;;
64293;SDS011;50636;45.596;5.258;2023-06-22T11:57:59;23.90;;;5.82;;
64293;SDS011;50636;45.596;5.258;2023-06-22T12:00:28;34.65;;;6.03;;
64293;SDS011;50636;45.596;5.258;2023-06-22T12:02:55;14.88;;;3.55;;
64293;SDS011;50636;45.596;5.258;2023-06-22T12:05:21;21.70;;;4.80;;
64293;SDS011;50636;45.596;5.258;2023-06-22T12:07:47;80.25;;;7.95;;
64293;SDS011;50636;45.596;5.258;2023-06-22T12:10:14;21.42;;;4.40;;
64293;SDS011;50636;45.596;5.258;2023-06-22T12:12:40;26.63;;;4.70;;
64293;SDS011;50636;45.596;5.258;2023-06-22T12:15:06;43.42;;;5.70;;
64293;SDS011;50636;45.596;5.258;2023-06-22T12:17:33;20.73;;;4.30;;
64293;SDS011;50636;45.596;5.258;2023-06-22T12:19:59;8.40;;;3.42;;
64293;SDS011;50636;45.596;5.258;2023-06-22T12:22:25;14.60;;;3.55;;
64293;SDS011;50636;45.596;5.258;2023-06-22T12:24:50;21.50;;;3.80;;
64293;SDS011;50636;45.596;5.258;2023-06-22T12:27:16;20.25;;;4.18;;
64293;SDS011;50636;45.596;5.258;2023-06-22T12:29:44;21.65;;;3.83;;
64293;SDS011;50636;45.596;5.258;2023-06-22T12:32:11;9.23;;;3.25;;
64293;SDS011;50636;45.596;5.258;2023-06-22T12:34:41;13.15;;;3.47;;
64293;SDS011;50636;45.596;5.258;2023-06-22T12:37:07;16.30;;;3.83;;
64293;SDS011;50636;45.596;5.258;2023-06-22T12:39:33;22.17;;;4.85;;
64293;SDS011;50636;45.596;5.258;2023-06-22T12:41:59;15.02;;;3.65;;
64293;SDS011;50636;45.596;5.258;2023-06-22T12:44:25;10.95;;;3.42;;
64293;SDS011;50636;45.596;5.258;2023-06-22T12:46:50;15.00;;;3.85;;
64293;SDS011;50636;45.596;5.258;2023-06-22T12:49:16;21.45;;;4.32;;
64293;SDS011;50636;45.596;5.258;2023-06-22T12:51:42;13.48;;;3.83;;
64293;SDS011;50636;45.596;5.258;2023-06-22T12:54:09;11.75;;;3.70;;
64293;SDS011;50636;45.596;5.258;2023-06-22T12:56:35;10.43;;;3.75;;
64293;SDS011;50636;45.596;5.258;2023-06-22T12:59:02;15.80;;;3.75;;
64293;SDS011;50636;45.596;5.258;2023-06-22T13:01:29;16.65;;;3.72;;
64293;SDS011;50636;45.596;5.258;2023-06-22T13:03:56;20.08;;;4.05;;
64293;SDS011;50636;45.596;5.258;2023-06-22T13:06:21;13.18;;;3.33;;
64293;SDS011;50636;45.596;5.258;2023-06-22T13:08:47;15.23;;;3.97;;
64293;SDS011;50636;45.596;5.258;2023-06-22T13:11:13;11.13;;;3.80;;
64293;SDS011;50636;45.596;5.258;2023-06-22T13:13:39;30.38;;;8.75;;
64293;SDS011;50636;45.596;5.258;2023-06-22T13:16:05;13.23;;;3.58;;
64293;SDS011;50636;45.596;5.258;2023-06-22T13:18:32;13.20;;;3.80;;
64293;SDS011;50636;45.596;5.258;2023-06-22T13:20:58;12.00;;;4.20;;
64293;SDS011;50636;45.596;5.258;2023-06-22T13:23:25;13.20;;;3.90;;
64293;SDS011;50636;45.596;5.258;2023-06-22T13:25:51;18.80;;;4.25;;
64293;SDS011;50636;45.596;5.258;2023-06-22T13:28:16;13.15;;;4.82;;
64293;SDS011;50636;45.596;5.258;2023-06-22T13:30:42;11.60;;;4.40;;
64293;SDS011;50636;45.596;5.258;2023-06-22T13:33:11;27.48;;;5.97;;
64293;SDS011;50636;45.596;5.258;2023-06-22T13:35:36;36.95;;;7.40;;
64293;SDS011;50636;45.596;5.258;2023-06-22T13:38:03;13.93;;;4.07;;
64293;SDS011;50636;45.596;5.258;2023-06-22T13:40:29;11.82;;;4.22;;
64293;SDS011;50636;45.596;5.258;2023-06-22T13:42:55;10.18;;;3.75;;
64293;SDS011;50636;45.596;5.258;2023-06-22T13:45:21;7.95;;;4.50;;
64293;SDS011;50636;45.596;5.258;2023-06-22T13:47:47;9.85;;;3.20;;
64293;SDS011;50636;45.596;5.258;2023-06-22T13:50:13;5.72;;;3.30;;
64293;SDS011;50636;45.596;5.258;2023-06-22T13:52:39;9.57;;;2.40;;
64293;SDS011;50636;45.596;5.258;2023-06-22T13:55:05;10.15;;;4.00;;
64293;SDS011;50636;45.596;5.258;2023-06-22T13:57:32;9.77;;;3.83;;
64293;SDS011;50636;45.596;5.258;2023-06-22T13:59:59;21.02;;;4.82;;
64293;SDS011;50636;45.596;5.258;2023-06-22T14:02:28;9.30;;;4.35;;
64293;SDS011;50636;45.596;5.258;2023-06-22T14:04:53;11.23;;;3.38;;
64293;SDS011;50636;45.596;5.258;2023-06-22T14:07:19;8.60;;;4.10;;
64293;SDS011;50636;45.596;5.258;2023-06-22T14:09:46;5.38;;;2.88;;
64293;SDS011;50636;45.596;5.258;2023-06-22T14:12:12;6.00;;;3.33;;
64293;SDS011;50636;45.596;5.258;2023-06-22T14:14:38;10.10;;;4.35;;
64293;SDS011;50636;45.596;5.258;2023-06-22T14:17:03;7.78;;;3.17;;
64293;SDS011;50636;45.596;5.258;2023-06-22T14:19:30;4.75;;;2.10;;
64293;SDS011;50636;45.596;5.258;2023-06-22T14:21:55;6.30;;;3.83;;
64293;SDS011;50636;45.596;5.258;2023-06-22T14:24:22;6.22;;;2.72;;
64293;SDS011;50636;45.596;5.258;2023-06-22T14:26:48;8.50;;;2.63;;
64293;SDS011;50636;45.596;5.258;2023-06-22T14:29:14;7.95;;;3.03;;
64293;SDS011;50636;45.596;5.258;2023-06-22T14:31:40;8.70;;;4.85;;
64293;SDS011;50636;45.596;5.258;2023-06-22T14:34:05;22.17;;;12.50;;
64293;SDS011;50636;45.596;5.258;2023-06-22T14:36:31;21.33;;;19.13;;
64293;SDS011;50636;45.596;5.258;2023-06-22T14:38:57;10.35;;;6.30;;
64293;SDS011;50636;45.596;5.258;2023-06-22T14:41:23;13.15;;;3.47;;